sensor_id;sensor_type;location;lat;lon;timestamp;temperature;humidity
8953;DHT22;4511;50.890;8.054;2023-08-01T00:00:13;16.70;99.90
8953;DHT22;4511;50.890;8.054;2023-08-01T00:02:41;16.70;99.90
8953;DHT22;4511;50.890;8.054;2023-08-01T00:05:09;16.70;99.90
8953;DHT22;4511;50.890;8.054;2023-08-01T00:07:36;16.70;99.90
8953;DHT22;4511;50.890;8.054;2023-08-01T00:10:03;16.70;99.90
8953;DHT22;4511;50.890;8.054;2023-08-01T00:12:30;16.70;99.90
8953;DHT22;4511;50.890;8.054;2023-08-01T00:14:57;16.70;99.90
8953;DHT22;4511;50.890;8.054;2023-08-01T00:17:24;16.60;99.90
8953;DHT22;4511;50.890;8.054;2023-08-01T00:19:52;16.70;99.90
8953;DHT22;4511;50.890;8.054;2023-08-01T00:22:20;16.60;99.90
8953;DHT22;4511;50.890;8.054;2023-08-01T00:24:47;16.70;99.90
8953;DHT22;4511;50.890;8.054;2023-08-01T00:27:14;16.70;99.90
8953;DHT22;4511;50.890;8.054;2023-08-01T00:29:41;16.70;99.90
8953;DHT22;4511;50.890;8.054;2023-08-01T00:32:08;16.70;99.90
8953;DHT22;4511;50.890;8.054;2023-08-01T00:34:34;16.60;99.90
8953;DHT22;4511;50.890;8.054;2023-08-01T00:37:03;16.70;99.90
8953;DHT22;4511;50.890;8.054;2023-08-01T00:39:30;16.70;99.90
8953;DHT22;4511;50.890;8.054;2023-08-01T00:41:57;16.70;99.90
8953;DHT22;4511;50.890;8.054;2023-08-01T00:44:23;16.70;99.90
8953;DHT22;4511;50.890;8.054;2023-08-01T00:46:50;16.70;99.90
8953;DHT22;4511;50.890;8.054;2023-08-01T00:49:17;16.70;99.90
8953;DHT22;4511;50.890;8.054;2023-08-01T00:51:45;16.70;99.90
8953;DHT22;4511;50.890;8.054;2023-08-01T00:54:13;16.70;99.90
8953;DHT22;4511;50.890;8.054;2023-08-01T00:56:40;16.70;99.90
8953;DHT22;4511;50.890;8.054;2023-08-01T00:59:07;16.70;99.90
8953;DHT22;4511;50.890;8.054;2023-08-01T01:01:34;16.80;99.90
8953;DHT22;4511;50.890;8.054;2023-08-01T01:04:01;16.70;99.90
8953;DHT22;4511;50.890;8.054;2023-08-01T01:06:32;16.70;99.90
8953;DHT22;4511;50.890;8.054;2023-08-01T01:08:59;16.60;99.90
8953;DHT22;4511;50.890;8.054;2023-08-01T01:11:27;16.60;99.90
8953;DHT22;4511;50.890;8.054;2023-08-01T01:13:54;16.70;99.90
8953;DHT22;4511;50.890;8.054;2023-08-01T01:16:21;16.70;99.90
8953;DHT22;4511;50.890;8.054;2023-08-01T01:18:48;16.80;99.90
8953;DHT22;4511;50.890;8.054;2023-08-01T01:21:16;16.70;99.90
8953;DHT22;4511;50.890;8.054;2023-08-01T01:23:43;16.70;99.90
8953;DHT22;4511;50.890;8.054;2023-08-01T01:26:10;16.70;99.90
8953;DHT22;4511;50.890;8.054;2023-08-01T01:28:38;16.60;99.90
8953;DHT22;4511;50.890;8.054;2023-08-01T01:31:06;16.60;99.90
8953;DHT22;4511;50.890;8.054;2023-08-01T01:33:34;16.70;99.90
8953;DHT22;4511;50.890;8.054;2023-08-01T01:36:01;16.70;99.90
8953;DHT22;4511;50.890;8.054;2023-08-01T01:38:29;16.70;99.90
8953;DHT22;4511;50.890;8.054;2023-08-01T01:40:56;16.70;99.90
8953;DHT22;4511;50.890;8.054;2023-08-01T01:43:23;16.70;99.90
8953;DHT22;4511;50.890;8.054;2023-08-01T01:45:50;16.70;99.90
8953;DHT22;4511;50.890;8.054;2023-08-01T01:48:16;16.70;99.90
8953;DHT22;4511;50.890;8.054;2023-08-01T01:50:43;16.60;99.90
8953;DHT22;4511;50.890;8.054;2023-08-01T01:53:10;16.60;99.90
8953;DHT22;4511;50.890;8.054;2023-08-01T01:55:38;16.60;99.90
8953;DHT22;4511;50.890;8.054;2023-08-01T01:58:05;16.60;99.90
8953;DHT22;4511;50.890;8.054;2023-08-01T02:00:33;16.60;99.90
8953;DHT22;4511;50.890;8.054;2023-08-01T02:03:00;16.60;99.90
8953;DHT22;4511;50.890;8.054;2023-08-01T02:05:28;16.70;99.90
8953;DHT22;4511;50.890;8.054;2023-08-01T02:07:55;16.70;99.90
8953;DHT22;4511;50.890;8.054;2023-08-01T02:10:22;16.70;99.90
8953;DHT22;4511;50.890;8.054;2023-08-01T02:12:50;16.70;99.90
8953;DHT22;4511;50.890;8.054;2023-08-01T02:15:17;16.70;99.90
8953;DHT22;4511;50.890;8.054;2023-08-01T02:17:43;16.70;99.90
8953;DHT22;4511;50.890;8.054;2023-08-01T02:20:11;16.70;99.90
8953;DHT22;4511;50.890;8.054;2023-08-01T02:22:38;16.80;99.90
8953;DHT22;4511;50.890;8.054;2023-08-01T02:25:05;16.70;99.90
8953;DHT22;4511;50.890;8.054;2023-08-01T02:27:32;16.70;99.90
8953;DHT22;4511;50.890;8.054;2023-08-01T02:30:00;16.70;99.90
8953;DHT22;4511;50.890;8.054;2023-08-01T02:32:28;16.70;99.90
8953;DHT22;4511;50.890;8.054;2023-08-01T02:34:55;16.70;99.90
8953;DHT22;4511;50.890;8.054;2023-08-01T02:37:22;16.70;99.90
8953;DHT22;4511;50.890;8.054;2023-08-01T02:39:49;16.70;99.90
8953;DHT22;4511;50.890;8.054;2023-08-01T02:42:16;16.70;99.90
8953;DHT22;4511;50.890;8.054;2023-08-01T02:44:43;16.70;99.90
8953;DHT22;4511;50.890;8.054;2023-08-01T02:47:11;16.70;99.90
8953;DHT22;4511;50.890;8.054;2023-08-01T02:49:37;16.70;99.90
8953;DHT22;4511;50.890;8.054;2023-08-01T02:52:05;16.70;99.90
8953;DHT22;4511;50.890;8.054;2023-08-01T02:54:31;16.70;99.90
8953;DHT22;4511;50.890;8.054;2023-08-01T02:56:58;16.80;99.90
8953;DHT22;4511;50.890;8.054;2023-08-01T02:59:25;16.80;99.90
8953;DHT22;4511;50.890;8.054;2023-08-01T03:01:52;16.70;99.90
8953;DHT22;4511;50.890;8.054;2023-08-01T03:04:20;16.80;99.90
8953;DHT22;4511;50.890;8.054;2023-08-01T03:06:47;16.70;99.90
8953;DHT22;4511;50.890;8.054;2023-08-01T03:09:14;16.70;99.90
8953;DHT22;4511;50.890;8.054;2023-08-01T03:11:41;16.60;99.90
8953;DHT22;4511;50.890;8.054;2023-08-01T03:14:08;16.60;99.90
8953;DHT22;4511;50.890;8.054;2023-08-01T03:16:35;16.60;99.90
8953;DHT22;4511;50.890;8.054;2023-08-01T03:19:01;16.60;99.90
8953;DHT22;4511;50.890;8.054;2023-08-01T03:21:32;16.60;99.90
8953;DHT22;4511;50.890;8.054;2023-08-01T03:23:59;16.50;99.90
8953;DHT22;4511;50.890;8.054;2023-08-01T03:26:25;16.40;99.90
8953;DHT22;4511;50.890;8.054;2023-08-01T03:28:53;16.40;99.90
8953;DHT22;4511;50.890;8.054;2023-08-01T03:31:20;16.50;99.90
8953;DHT22;4511;50.890;8.054;2023-08-01T03:33:47;16.30;99.90
8953;DHT22;4511;50.890;8.054;2023-08-01T03:36:14;16.40;99.90
8953;DHT22;4511;50.890;8.054;2023-08-01T03:38:42;16.40;99.90
8953;DHT22;4511;50.890;8.054;2023-08-01T03:41:10;16.40;99.90
8953;DHT22;4511;50.890;8.054;2023-08-01T03:43:37;16.40;99.90
8953;DHT22;4511;50.890;8.054;2023-08-01T03:46:04;16.50;99.90
8953;DHT22;4511;50.890;8.054;2023-08-01T03:48:31;16.50;99.90
8953;DHT22;4511;50.890;8.054;2023-08-01T03:50:57;16.60;99.90
8953;DHT22;4511;50.890;8.054;2023-08-01T03:53:25;16.50;99.90
8953;DHT22;4511;50.890;8.054;2023-08-01T03:55:54;16.60;99.90
8953;DHT22;4511;50.890;8.054;2023-08-01T03:58:20;16.50;99.90
8953;DHT22;4511;50.890;8.054;2023-08-01T04:00:47;16.50;99.90
8953;DHT22;4511;50.890;8.054;2023-08-01T04:03:14;16.50;99.90
8953;DHT22;4511;50.890;8.054;2023-08-01T04:05:41;16.50;99.90
8953;DHT22;4511;50.890;8.054;2023-08-01T04:08:08;16.60;99.90
8953;DHT22;4511;50.890;8.054;2023-08-01T04:10:35;16.60;99.90
8953;DHT22;4511;50.890;8.054;2023-08-01T04:13:03;16.60;99.90
8953;DHT22;4511;50.890;8.054;2023-08-01T04:15:30;16.40;99.90
8953;DHT22;4511;50.890;8.054;2023-08-01T04:17:56;16.40;99.90
8953;DHT22;4511;50.890;8.054;2023-08-01T04:20:23;16.40;99.90
8953;DHT22;4511;50.890;8.054;2023-08-01T04:22:50;16.30;99.90
8953;DHT22;4511;50.890;8.054;2023-08-01T04:25:18;16.10;99.90
8953;DHT22;4511;50.890;8.054;2023-08-01T04:27:45;16.20;99.90
8953;DHT22;4511;50.890;8.054;2023-08-01T04:30:13;16.20;99.90
8953;DHT22;4511;50.890;8.054;2023-08-01T04:32:39;16.10;99.90
8953;DHT22;4511;50.890;8.054;2023-08-01T04:35:07;16.10;99.90
8953;DHT22;4511;50.890;8.054;2023-08-01T04:37:34;16.10;99.90
8953;DHT22;4511;50.890;8.054;2023-08-01T04:40:00;16.20;99.90
8953;DHT22;4511;50.890;8.054;2023-08-01T04:42:28;16.10;99.90
8953;DHT22;4511;50.890;8.054;2023-08-01T04:44:55;16.10;99.90
8953;DHT22;4511;50.890;8.054;2023-08-01T04:47:23;16.10;99.90
8953;DHT22;4511;50.890;8.054;2023-08-01T04:49:50;16.20;99.90
8953;DHT22;4511;50.890;8.054;2023-08-01T04:52:17;16.10;99.90
8953;DHT22;4511;50.890;8.054;2023-08-01T04:54:44;16.20;99.90
8953;DHT22;4511;50.890;8.054;2023-08-01T04:57:11;16.20;99.90
8953;DHT22;4511;50.890;8.054;2023-08-01T04:59:37;16.10;99.90
8953;DHT22;4511;50.890;8.054;2023-08-01T05:02:04;16.00;99.90
8953;DHT22;4511;50.890;8.054;2023-08-01T05:04:33;16.30;99.90
8953;DHT22;4511;50.890;8.054;2023-08-01T05:07:00;16.30;99.90
8953;DHT22;4511;50.890;8.054;2023-08-01T05:09:26;16.30;99.90
8953;DHT22;4511;50.890;8.054;2023-08-01T05:11:53;16.30;99.90
8953;DHT22;4511;50.890;8.054;2023-08-01T05:14:20;16.20;99.90
8953;DHT22;4511;50.890;8.054;2023-08-01T05:16:47;16.20;99.90
8953;DHT22;4511;50.890;8.054;2023-08-01T05:19:13;16.10;99.90
8953;DHT22;4511;50.890;8.054;2023-08-01T05:21:42;16.10;99.90
8953;DHT22;4511;50.890;8.054;2023-08-01T05:24:08;16.10;99.90
8953;DHT22;4511;50.890;8.054;2023-08-01T05:26:36;16.10;99.90
8953;DHT22;4511;50.890;8.054;2023-08-01T05:29:02;15.80;99.90
8953;DHT22;4511;50.890;8.054;2023-08-01T05:31:29;15.80;99.90
8953;DHT22;4511;50.890;8.054;2023-08-01T05:33:56;15.70;99.90
8953;DHT22;4511;50.890;8.054;2023-08-01T05:36:23;15.70;99.90
8953;DHT22;4511;50.890;8.054;2023-08-01T05:38:51;15.80;99.90
8953;DHT22;4511;50.890;8.054;2023-08-01T05:41:18;15.80;99.90
8953;DHT22;4511;50.890;8.054;2023-08-01T05:43:46;15.90;99.90
8953;DHT22;4511;50.890;8.054;2023-08-01T05:46:13;16.00;99.90
8953;DHT22;4511;50.890;8.054;2023-08-01T05:48:40;15.80;99.90
8953;DHT22;4511;50.890;8.054;2023-08-01T05:51:07;15.90;99.90
8953;DHT22;4511;50.890;8.054;2023-08-01T05:53:33;15.80;99.90
8953;DHT22;4511;50.890;8.054;2023-08-01T05:56:02;15.90;99.90
8953;DHT22;4511;50.890;8.054;2023-08-01T05:58:30;15.70;99.90
8953;DHT22;4511;50.890;8.054;2023-08-01T06:00:57;15.80;99.90
8953;DHT22;4511;50.890;8.054;2023-08-01T06:03:23;15.70;99.90
8953;DHT22;4511;50.890;8.054;2023-08-01T06:05:50;15.80;99.90
8953;DHT22;4511;50.890;8.054;2023-08-01T06:08:17;15.50;99.90
8953;DHT22;4511;50.890;8.054;2023-08-01T06:10:44;15.60;99.90
8953;DHT22;4511;50.890;8.054;2023-08-01T06:13:13;15.60;99.90
8953;DHT22;4511;50.890;8.054;2023-08-01T06:15:39;15.60;99.90
8953;DHT22;4511;50.890;8.054;2023-08-01T06:18:06;15.60;99.90
8953;DHT22;4511;50.890;8.054;2023-08-01T06:20:33;15.60;99.90
8953;DHT22;4511;50.890;8.054;2023-08-01T06:23:00;15.70;99.90
8953;DHT22;4511;50.890;8.054;2023-08-01T06:25:27;15.80;99.90
8953;DHT22;4511;50.890;8.054;2023-08-01T06:27:53;15.90;99.90
8953;DHT22;4511;50.890;8.054;2023-08-01T06:30:21;15.90;99.90
8953;DHT22;4511;50.890;8.054;2023-08-01T06:32:47;15.80;99.90
8953;DHT22;4511;50.890;8.054;2023-08-01T06:35:14;15.90;99.90
8953;DHT22;4511;50.890;8.054;2023-08-01T06:37:41;16.00;99.90
8953;DHT22;4511;50.890;8.054;2023-08-01T06:40:09;15.90;99.90
8953;DHT22;4511;50.890;8.054;2023-08-01T06:42:36;16.00;99.90
8953;DHT22;4511;50.890;8.054;2023-08-01T06:45:03;16.00;99.90
8953;DHT22;4511;50.890;8.054;2023-08-01T06:47:31;16.00;99.90
8953;DHT22;4511;50.890;8.054;2023-08-01T06:49:58;16.00;99.90
8953;DHT22;4511;50.890;8.054;2023-08-01T06:52:25;16.00;99.90
8953;DHT22;4511;50.890;8.054;2023-08-01T06:54:51;15.80;99.90
8953;DHT22;4511;50.890;8.054;2023-08-01T06:57:18;15.70;99.90
8953;DHT22;4511;50.890;8.054;2023-08-01T06:59:45;15.60;99.90
8953;DHT22;4511;50.890;8.054;2023-08-01T07:02:12;15.70;99.90
8953;DHT22;4511;50.890;8.054;2023-08-01T07:04:40;15.90;99.90
8953;DHT22;4511;50.890;8.054;2023-08-01T07:07:07;15.80;99.90
8953;DHT22;4511;50.890;8.054;2023-08-01T07:09:34;15.70;99.90
8953;DHT22;4511;50.890;8.054;2023-08-01T07:12:01;15.80;99.90
8953;DHT22;4511;50.890;8.054;2023-08-01T07:14:27;15.80;99.90
8953;DHT22;4511;50.890;8.054;2023-08-01T07:16:54;15.90;99.90
8953;DHT22;4511;50.890;8.054;2023-08-01T07:19:21;15.80;99.90
8953;DHT22;4511;50.890;8.054;2023-08-01T07:21:49;15.90;99.90
8953;DHT22;4511;50.890;8.054;2023-08-01T07:24:16;15.90;99.90
8953;DHT22;4511;50.890;8.054;2023-08-01T07:26:43;15.90;99.90
8953;DHT22;4511;50.890;8.054;2023-08-01T07:29:10;15.80;99.90
8953;DHT22;4511;50.890;8.054;2023-08-01T07:31:40;15.80;99.90
8953;DHT22;4511;50.890;8.054;2023-08-01T07:34:06;15.60;99.90
8953;DHT22;4511;50.890;8.054;2023-08-01T07:36:33;15.50;99.90
8953;DHT22;4511;50.890;8.054;2023-08-01T07:39:02;15.60;99.90
8953;DHT22;4511;50.890;8.054;2023-08-01T07:41:29;15.90;99.90
8953;DHT22;4511;50.890;8.054;2023-08-01T07:43:55;16.10;99.90
8953;DHT22;4511;50.890;8.054;2023-08-01T07:46:22;16.00;99.90
8953;DHT22;4511;50.890;8.054;2023-08-01T07:48:49;16.00;99.90
8953;DHT22;4511;50.890;8.054;2023-08-01T07:51:19;16.00;99.90
8953;DHT22;4511;50.890;8.054;2023-08-01T07:53:45;16.00;99.90
8953;DHT22;4511;50.890;8.054;2023-08-01T07:56:13;16.00;99.90
8953;DHT22;4511;50.890;8.054;2023-08-01T07:58:40;15.90;99.90
8953;DHT22;4511;50.890;8.054;2023-08-01T08:01:07;15.90;99.90
8953;DHT22;4511;50.890;8.054;2023-08-01T08:03:34;16.00;99.90
8953;DHT22;4511;50.890;8.054;2023-08-01T08:06:01;15.90;99.90
8953;DHT22;4511;50.890;8.054;2023-08-01T08:08:29;16.00;99.90
8953;DHT22;4511;50.890;8.054;2023-08-01T08:10:57;15.80;99.90
8953;DHT22;4511;50.890;8.054;2023-08-01T08:13:25;15.90;99.90
8953;DHT22;4511;50.890;8.054;2023-08-01T08:15:52;16.30;99.90
8953;DHT22;4511;50.890;8.054;2023-08-01T08:18:21;16.30;99.90
8953;DHT22;4511;50.890;8.054;2023-08-01T08:20:48;15.90;99.90
8953;DHT22;4511;50.890;8.054;2023-08-01T08:23:14;16.20;99.90
8953;DHT22;4511;50.890;8.054;2023-08-01T08:25:41;16.30;99.90
8953;DHT22;4511;50.890;8.054;2023-08-01T08:28:11;16.00;99.90
8953;DHT22;4511;50.890;8.054;2023-08-01T08:30:39;16.20;99.90
8953;DHT22;4511;50.890;8.054;2023-08-01T08:33:06;16.40;99.90
8953;DHT22;4511;50.890;8.054;2023-08-01T08:35:33;16.40;99.90
8953;DHT22;4511;50.890;8.054;2023-08-01T08:38:02;16.40;99.90
8953;DHT22;4511;50.890;8.054;2023-08-01T08:40:29;16.60;99.90
8953;DHT22;4511;50.890;8.054;2023-08-01T08:42:58;16.50;99.90
8953;DHT22;4511;50.890;8.054;2023-08-01T08:45:28;16.50;99.90
8953;DHT22;4511;50.890;8.054;2023-08-01T08:48:01;16.40;99.90
8953;DHT22;4511;50.890;8.054;2023-08-01T08:50:29;16.60;99.90
8953;DHT22;4511;50.890;8.054;2023-08-01T08:52:57;16.80;99.90
8953;DHT22;4511;50.890;8.054;2023-08-01T08:55:24;16.80;99.90
8953;DHT22;4511;50.890;8.054;2023-08-01T08:57:52;16.80;99.90
8953;DHT22;4511;50.890;8.054;2023-08-01T09:00:20;16.90;99.90
8953;DHT22;4511;50.890;8.054;2023-08-01T09:02:47;16.80;99.90
8953;DHT22;4511;50.890;8.054;2023-08-01T09:05:15;16.60;99.90
8953;DHT22;4511;50.890;8.054;2023-08-01T09:07:43;16.60;99.90
8953;DHT22;4511;50.890;8.054;2023-08-01T09:10:13;16.90;99.90
8953;DHT22;4511;50.890;8.054;2023-08-01T09:12:40;17.10;99.90
8953;DHT22;4511;50.890;8.054;2023-08-01T09:15:08;17.30;99.90
8953;DHT22;4511;50.890;8.054;2023-08-01T09:17:35;17.40;99.90
8953;DHT22;4511;50.890;8.054;2023-08-01T09:20:06;17.50;99.90
8953;DHT22;4511;50.890;8.054;2023-08-01T09:22:43;17.10;99.90
8953;DHT22;4511;50.890;8.054;2023-08-01T09:25:10;16.90;99.90
8953;DHT22;4511;50.890;8.054;2023-08-01T09:27:38;16.90;99.90
8953;DHT22;4511;50.890;8.054;2023-08-01T09:30:07;17.00;99.90
8953;DHT22;4511;50.890;8.054;2023-08-01T09:32:37;17.10;99.90
8953;DHT22;4511;50.890;8.054;2023-08-01T09:35:04;17.30;99.90
8953;DHT22;4511;50.890;8.054;2023-08-01T09:37:42;17.30;99.90
8953;DHT22;4511;50.890;8.054;2023-08-01T09:40:10;17.30;99.90
8953;DHT22;4511;50.890;8.054;2023-08-01T09:42:40;17.10;99.90
8953;DHT22;4511;50.890;8.054;2023-08-01T09:45:12;16.90;99.90
8953;DHT22;4511;50.890;8.054;2023-08-01T09:47:39;16.60;99.90
8953;DHT22;4511;50.890;8.054;2023-08-01T09:50:08;16.60;99.90
8953;DHT22;4511;50.890;8.054;2023-08-01T09:52:36;16.20;99.90
8953;DHT22;4511;50.890;8.054;2023-08-01T09:55:05;16.20;99.90
8953;DHT22;4511;50.890;8.054;2023-08-01T09:57:34;16.50;99.90
8953;DHT22;4511;50.890;8.054;2023-08-01T10:00:05;16.70;99.90
8953;DHT22;4511;50.890;8.054;2023-08-01T10:02:35;16.80;99.90
8953;DHT22;4511;50.890;8.054;2023-08-01T10:05:02;16.80;99.90
8953;DHT22;4511;50.890;8.054;2023-08-01T10:07:31;17.00;99.90
8953;DHT22;4511;50.890;8.054;2023-08-01T10:09:59;17.10;99.90
8953;DHT22;4511;50.890;8.054;2023-08-01T10:12:28;17.10;99.90
8953;DHT22;4511;50.890;8.054;2023-08-01T10:14:56;16.80;99.90
8953;DHT22;4511;50.890;8.054;2023-08-01T10:17:25;16.50;99.90
8953;DHT22;4511;50.890;8.054;2023-08-01T10:19:53;16.60;99.90
8953;DHT22;4511;50.890;8.054;2023-08-01T10:22:21;16.40;99.90
8953;DHT22;4511;50.890;8.054;2023-08-01T10:24:49;16.50;99.90
8953;DHT22;4511;50.890;8.054;2023-08-01T10:27:21;16.70;99.90
8953;DHT22;4511;50.890;8.054;2023-08-01T10:29:58;17.00;99.90
8953;DHT22;4511;50.890;8.054;2023-08-01T10:32:31;17.20;99.90
8953;DHT22;4511;50.890;8.054;2023-08-01T10:34:58;17.40;99.90
8953;DHT22;4511;50.890;8.054;2023-08-01T10:37:25;17.50;99.90
8953;DHT22;4511;50.890;8.054;2023-08-01T10:39:59;17.40;99.90
8953;DHT22;4511;50.890;8.054;2023-08-01T10:42:36;17.10;99.90
8953;DHT22;4511;50.890;8.054;2023-08-01T10:45:06;16.90;99.90
8953;DHT22;4511;50.890;8.054;2023-08-01T10:47:33;16.50;99.90
8953;DHT22;4511;50.890;8.054;2023-08-01T10:50:00;16.60;99.90
8953;DHT22;4511;50.890;8.054;2023-08-01T10:52:28;17.10;99.90
8953;DHT22;4511;50.890;8.054;2023-08-01T10:54:57;17.50;99.90
8953;DHT22;4511;50.890;8.054;2023-08-01T10:57:26;18.00;99.90
8953;DHT22;4511;50.890;8.054;2023-08-01T10:59:53;18.20;99.90
8953;DHT22;4511;50.890;8.054;2023-08-01T11:02:23;18.20;99.90
8953;DHT22;4511;50.890;8.054;2023-08-01T11:04:57;18.20;99.90
8953;DHT22;4511;50.890;8.054;2023-08-01T11:07:24;17.90;99.90
8953;DHT22;4511;50.890;8.054;2023-08-01T11:10:06;17.70;99.90
8953;DHT22;4511;50.890;8.054;2023-08-01T11:12:34;17.50;99.90
8953;DHT22;4511;50.890;8.054;2023-08-01T11:15:03;17.40;99.90
8953;DHT22;4511;50.890;8.054;2023-08-01T11:17:32;17.40;99.90
8953;DHT22;4511;50.890;8.054;2023-08-01T11:20:03;17.70;99.90
8953;DHT22;4511;50.890;8.054;2023-08-01T11:22:30;18.00;99.90
8953;DHT22;4511;50.890;8.054;2023-08-01T11:24:57;18.10;99.90
8953;DHT22;4511;50.890;8.054;2023-08-01T11:27:25;18.30;99.90
8953;DHT22;4511;50.890;8.054;2023-08-01T11:29:52;18.30;99.90
8953;DHT22;4511;50.890;8.054;2023-08-01T11:32:19;18.70;99.90
8953;DHT22;4511;50.890;8.054;2023-08-01T11:34:48;18.80;99.90
8953;DHT22;4511;50.890;8.054;2023-08-01T11:37:18;18.90;99.90
8953;DHT22;4511;50.890;8.054;2023-08-01T11:39:46;18.50;99.90
8953;DHT22;4511;50.890;8.054;2023-08-01T11:42:15;18.60;99.90
8953;DHT22;4511;50.890;8.054;2023-08-01T11:44:42;18.60;99.90
8953;DHT22;4511;50.890;8.054;2023-08-01T11:47:11;18.50;99.90
8953;DHT22;4511;50.890;8.054;2023-08-01T11:49:39;18.80;99.90
8953;DHT22;4511;50.890;8.054;2023-08-01T11:52:08;19.30;99.90
8953;DHT22;4511;50.890;8.054;2023-08-01T11:54:44;19.20;99.90
8953;DHT22;4511;50.890;8.054;2023-08-01T11:57:11;19.40;99.90
8953;DHT22;4511;50.890;8.054;2023-08-01T11:59:46;19.60;99.90
8953;DHT22;4511;50.890;8.054;2023-08-01T12:02:21;19.80;99.90
8953;DHT22;4511;50.890;8.054;2023-08-01T12:04:48;19.40;99.90
8953;DHT22;4511;50.890;8.054;2023-08-01T12:07:17;19.20;99.90
8953;DHT22;4511;50.890;8.054;2023-08-01T12:09:43;18.90;99.90
8953;DHT22;4511;50.890;8.054;2023-08-01T12:12:10;19.00;99.90
8953;DHT22;4511;50.890;8.054;2023-08-01T12:14:41;19.00;99.90
8953;DHT22;4511;50.890;8.054;2023-08-01T12:17:07;19.40;99.90
8953;DHT22;4511;50.890;8.054;2023-08-01T12:19:34;19.50;99.90
8953;DHT22;4511;50.890;8.054;2023-08-01T12:22:01;20.30;99.90
8953;DHT22;4511;50.890;8.054;2023-08-01T12:24:29;20.90;99.90
8953;DHT22;4511;50.890;8.054;2023-08-01T12:26:56;20.70;99.90
8953;DHT22;4511;50.890;8.054;2023-08-01T12:29:23;21.30;99.90
8953;DHT22;4511;50.890;8.054;2023-08-01T12:31:50;21.20;99.90
8953;DHT22;4511;50.890;8.054;2023-08-01T12:34:17;21.40;99.90
8953;DHT22;4511;50.890;8.054;2023-08-01T12:36:44;21.40;99.90
8953;DHT22;4511;50.890;8.054;2023-08-01T12:39:11;21.40;99.90
8953;DHT22;4511;50.890;8.054;2023-08-01T12:41:39;21.20;99.90
8953;DHT22;4511;50.890;8.054;2023-08-01T12:44:06;21.10;99.90
8953;DHT22;4511;50.890;8.054;2023-08-01T12:46:33;21.50;99.90
8953;DHT22;4511;50.890;8.054;2023-08-01T12:49:00;22.20;99.90
8953;DHT22;4511;50.890;8.054;2023-08-01T12:51:28;22.20;99.90
8953;DHT22;4511;50.890;8.054;2023-08-01T12:56:21;21.60;99.90
8953;DHT22;4511;50.890;8.054;2023-08-01T12:58:50;21.00;99.90
8953;DHT22;4511;50.890;8.054;2023-08-01T13:01:16;21.20;99.90
8953;DHT22;4511;50.890;8.054;2023-08-01T13:03:43;21.00;99.90
8953;DHT22;4511;50.890;8.054;2023-08-01T13:06:11;20.30;99.90
8953;DHT22;4511;50.890;8.054;2023-08-01T13:08:38;20.20;99.90
8953;DHT22;4511;50.890;8.054;2023-08-01T13:11:10;19.50;99.90
8953;DHT22;4511;50.890;8.054;2023-08-01T13:13:38;19.30;99.90
8953;DHT22;4511;50.890;8.054;2023-08-01T13:16:06;19.40;99.90
8953;DHT22;4511;50.890;8.054;2023-08-01T13:18:33;19.00;99.90
8953;DHT22;4511;50.890;8.054;2023-08-01T13:21:01;19.50;99.90
8953;DHT22;4511;50.890;8.054;2023-08-01T13:23:27;20.20;99.90
8953;DHT22;4511;50.890;8.054;2023-08-01T13:25:54;20.50;99.90
8953;DHT22;4511;50.890;8.054;2023-08-01T13:28:21;20.80;99.90
8953;DHT22;4511;50.890;8.054;2023-08-01T13:30:48;20.80;99.90
8953;DHT22;4511;50.890;8.054;2023-08-01T13:33:16;20.80;99.90
8953;DHT22;4511;50.890;8.054;2023-08-01T13:35:43;21.50;99.90
8953;DHT22;4511;50.890;8.054;2023-08-01T13:38:10;21.00;99.90
8953;DHT22;4511;50.890;8.054;2023-08-01T13:40:38;21.00;99.90
8953;DHT22;4511;50.890;8.054;2023-08-01T13:43:05;20.50;99.90
8953;DHT22;4511;50.890;8.054;2023-08-01T13:45:31;20.40;99.90
8953;DHT22;4511;50.890;8.054;2023-08-01T13:48:00;20.10;99.90
8953;DHT22;4511;50.890;8.054;2023-08-01T13:50:29;19.80;99.90
8953;DHT22;4511;50.890;8.054;2023-08-01T13:52:56;19.80;99.90
8953;DHT22;4511;50.890;8.054;2023-08-01T13:55:23;19.30;99.90
8953;DHT22;4511;50.890;8.054;2023-08-01T13:57:50;19.30;99.90
8953;DHT22;4511;50.890;8.054;2023-08-01T14:00:17;19.40;99.90
8953;DHT22;4511;50.890;8.054;2023-08-01T14:02:44;19.50;99.90
8953;DHT22;4511;50.890;8.054;2023-08-01T14:05:11;19.70;99.90
8953;DHT22;4511;50.890;8.054;2023-08-01T14:07:39;19.60;99.90
8953;DHT22;4511;50.890;8.054;2023-08-01T14:10:07;20.00;99.90
8953;DHT22;4511;50.890;8.054;2023-08-01T14:12:34;20.00;99.90
8953;DHT22;4511;50.890;8.054;2023-08-01T14:15:01;19.70;99.90
8953;DHT22;4511;50.890;8.054;2023-08-01T14:17:28;19.50;99.90
8953;DHT22;4511;50.890;8.054;2023-08-01T14:19:55;19.40;99.90
8953;DHT22;4511;50.890;8.054;2023-08-01T14:22:22;18.90;99.90
8953;DHT22;4511;50.890;8.054;2023-08-01T14:24:50;18.90;99.90
8953;DHT22;4511;50.890;8.054;2023-08-01T14:27:17;18.80;99.90
8953;DHT22;4511;50.890;8.054;2023-08-01T14:29:43;19.10;99.90
8953;DHT22;4511;50.890;8.054;2023-08-01T14:32:10;19.40;99.90
8953;DHT22;4511;50.890;8.054;2023-08-01T14:34:37;19.60;99.90
8953;DHT22;4511;50.890;8.054;2023-08-01T14:37:04;19.60;99.90
8953;DHT22;4511;50.890;8.054;2023-08-01T14:39:31;19.60;99.90
8953;DHT22;4511;50.890;8.054;2023-08-01T14:41:59;20.00;99.90
8953;DHT22;4511;50.890;8.054;2023-08-01T14:44:26;21.20;99.90
8953;DHT22;4511;50.890;8.054;2023-08-01T14:46:53;22.50;99.90
8953;DHT22;4511;50.890;8.054;2023-08-01T14:49:20;22.90;99.90
8953;DHT22;4511;50.890;8.054;2023-08-01T14:51:48;22.50;99.90
8953;DHT22;4511;50.890;8.054;2023-08-01T14:54:15;22.00;99.90
8953;DHT22;4511;50.890;8.054;2023-08-01T14:56:42;21.80;99.90
8953;DHT22;4511;50.890;8.054;2023-08-01T14:59:11;21.40;99.90
8953;DHT22;4511;50.890;8.054;2023-08-01T15:01:38;21.30;99.90
8953;DHT22;4511;50.890;8.054;2023-08-01T15:04:04;20.90;99.90
8953;DHT22;4511;50.890;8.054;2023-08-01T15:06:31;20.70;99.90
8953;DHT22;4511;50.890;8.054;2023-08-01T15:08:58;19.90;99.90
8953;DHT22;4511;50.890;8.054;2023-08-01T15:11:25;20.00;99.90
8953;DHT22;4511;50.890;8.054;2023-08-01T15:13:52;19.90;99.90
8953;DHT22;4511;50.890;8.054;2023-08-01T15:16:20;19.80;99.90
8953;DHT22;4511;50.890;8.054;2023-08-01T15:18:47;19.70;99.90
8953;DHT22;4511;50.890;8.054;2023-08-01T15:21:14;19.60;99.90
8953;DHT22;4511;50.890;8.054;2023-08-01T15:23:40;19.70;99.90
8953;DHT22;4511;50.890;8.054;2023-08-01T15:26:07;19.80;99.90
8953;DHT22;4511;50.890;8.054;2023-08-01T15:28:34;19.70;99.90
8953;DHT22;4511;50.890;8.054;2023-08-01T15:31:03;19.70;99.90
8953;DHT22;4511;50.890;8.054;2023-08-01T15:33:32;19.70;99.90
8953;DHT22;4511;50.890;8.054;2023-08-01T15:36:00;19.60;99.90
8953;DHT22;4511;50.890;8.054;2023-08-01T15:38:27;19.60;99.90
8953;DHT22;4511;50.890;8.054;2023-08-01T15:40:54;19.40;99.90
8953;DHT22;4511;50.890;8.054;2023-08-01T15:43:22;19.30;99.90
8953;DHT22;4511;50.890;8.054;2023-08-01T15:45:49;19.20;99.90
8953;DHT22;4511;50.890;8.054;2023-08-01T15:48:16;19.30;99.90
8953;DHT22;4511;50.890;8.054;2023-08-01T15:50:44;19.30;99.90
8953;DHT22;4511;50.890;8.054;2023-08-01T15:53:11;19.30;99.90
8953;DHT22;4511;50.890;8.054;2023-08-01T15:55:38;19.30;99.90
8953;DHT22;4511;50.890;8.054;2023-08-01T15:58:05;19.10;99.90
8953;DHT22;4511;50.890;8.054;2023-08-01T16:00:32;19.20;99.90
8953;DHT22;4511;50.890;8.054;2023-08-01T16:02:59;19.10;99.90
8953;DHT22;4511;50.890;8.054;2023-08-01T16:05:30;19.10;99.90